Etusivu
METAR-TAF:

METAR-TAF

Lentoasemat :

Kindersley, Saskatchewan, Kanada

Leveyspiiri: 51-31N, Pituuspiiri: 109-10W, korkeus merenpinnasta: 694 m

Tämänhetkinen sää

Tämä raportti tehtiin 46 minuuttia sitten, kello 16.34 UTC
Tuuli 13 kn idästä, vaihdellen pohjoisen/koillisen ja idän/kaakon välillä
Lämpötila 3°C
Kosteus 93%
Ilmanpaine 1019 hPa
Näkyvyys: 4.8 km
Pilvistä 300 ft:n korkeudessa
utua

METAR: CYKY 211634Z 08013KT 020V120 3SM BR OVC003 03/02 A3010 RMK ST8 VIS S 2 SLP215

Aika: 11:20 (17:20 UTC)


TAF: puuttuu

Säähavainnot ja -ennusteet yli 4000 lentoasemalta (METAR- ja TAF-raportit).

Käytössä olevat sääasemat on merkitty karttaan keltaisilla ja punaisilla pisteillä.

Aseta hiiri pisteen päälle nähdäksesi sääaseman nimen.

Klikkaa sitten nähdäksesi säähavainnot ja -ennusteet.

Kartan vaihtaminen: klikkaa mustalla rastilla varustettuja vihreitä pisteitä, niin voit zoomata sisään; viivalla varustettua vihreää pistettä, niin voit zoomata ulos tai vihreitä nuolia, niin pääset viereisille kartoille.


METAR-TAF: